ROMMA est une association bénévole à but non lucratif. Votre soutien est indispensable : ADHERER à ROMMA ou FAIRE un DON

Chambon - (38, Isère)

Oisans (2460 m)   Longitude: 06° 10' 42" E   Latitude: 45° 01' 32" N Station partenaire n°803
 

Détail journalier du     <<     >>

Température Humidité Vent Dir Rafale Dir. rafale Neige 1 Neige 2
Heure (°C) (%) (km/h) (km/h) (cm) (cm)
01:00 -0.9545SO9SO173213
02:00 -1.8533E7E173213
03:00 -2.6632SSO6SSO173213
04:00 -2.2555NNE21NNE173213
05:00 -2.6425NNE19NNE173213
06:00 -2.4324NNE12NNE173213
07:00 -2.8396NNE14NE173213
08:00 -2.4295NE11NE173212
09:00 1.6213SSO8OSO172212
10:00 1.8241SSO8NO172212
11:00 -0.12412NE33NE173212
12:00 -1.24415NNE28NE173212
13:00 -1.05010NNE20NNE173212
14:00 -1.0479NNE26NE173212
15:00 -2.16315NNE39NNE173212
16:00 -2.57215NNE37NNE173212
17:00 -3.16817NNE37NE173212
18:00 -4.16916NNE35NE173212
19:00 -5.4767N23N173212
20:00 -6.77914N39NE173212
21:00 -8.18326NNE50NE173212
22:00 -9.28133NNE50NE172211
23:00 -10.37634NNE52NE172209
minuit -10.57539NNE64NNE172208

Graphique du 25-03-2019

 

Serveur OMMA